Time;durP1;ratioP1;P1;durP2;ratioP2;P2;SDS_P1;SDS_P2;PMS_P1;PMS_P2;Temp;Humidity;BMP_temperature;BMP_pressure;BME280_temperature;BME280_humidity;BME280_pressure;Samples;Min_cycle;Max_cycle;Signal;HPM_P1;HPM_P2
2021/03/13 00:00:06;;;;;;;1.20;0.80;;;4.40;99.90;;;;;;5060799;28;20215;-73
2021/03/13 00:02:33;;;;;;;3.55;1.30;;;4.40;99.90;;;;;;5061876;28;20215;-73
2021/03/13 00:04:59;;;;;;;1.15;0.98;;;4.50;99.90;;;;;;5061031;28;20578;-72
2021/03/13 00:07:26;;;;;;;1.30;1.08;;;4.50;99.90;;;;;;5061867;28;20295;-73
2021/03/13 00:09:53;;;;;;;6.28;1.30;;;4.60;99.90;;;;;;5061956;28;20205;-72
2021/03/13 00:12:19;;;;;;;4.15;1.25;;;4.70;99.90;;;;;;5061734;28;20350;-73
2021/03/13 00:14:46;;;;;;;1.77;1.05;;;4.70;99.90;;;;;;5062291;28;20232;-73
2021/03/13 00:17:13;;;;;;;1.48;1.15;;;4.70;99.90;;;;;;5061352;28;20196;-72
2021/03/13 00:19:39;;;;;;;1.52;1.15;;;4.80;99.90;;;;;;5064246;28;20675;-73
2021/03/13 00:22:06;;;;;;;1.42;1.33;;;4.90;99.90;;;;;;5066046;28;20220;-73
2021/03/13 00:24:32;;;;;;;1.92;1.15;;;4.90;99.90;;;;;;5066005;28;20211;-73
2021/03/13 00:26:59;;;;;;;2.47;1.35;;;4.90;99.90;;;;;;5066583;28;20207;-72
2021/03/13 00:29:26;;;;;;;1.38;1.10;;;4.90;99.90;;;;;;5066388;28;20222;-72
2021/03/13 00:31:54;;;;;;;3.33;1.20;;;4.90;99.90;;;;;;5068287;28;20223;-72
2021/03/13 00:34:21;;;;;;;1.95;1.45;;;5.00;99.90;;;;;;5065905;28;20193;-73
2021/03/13 00:36:48;;;;;;;2.35;1.50;;;5.00;99.90;;;;;;5069150;28;20196;-72
2021/03/13 00:39:15;;;;;;;1.30;1.10;;;5.00;99.90;;;;;;5065680;28;20295;-72
2021/03/13 00:41:42;;;;;;;2.53;1.27;;;5.00;99.90;;;;;;5066090;28;20660;-73
2021/03/13 00:44:09;;;;;;;1.40;1.08;;;5.00;99.90;;;;;;5066033;28;20569;-73
2021/03/13 00:46:36;;;;;;;1.90;1.40;;;4.90;99.90;;;;;;5066242;28;20269;-73
2021/03/13 00:49:03;;;;;;;1.00;0.90;;;5.00;99.90;;;;;;5065534;28;20211;-72
2021/03/13 00:51:29;;;;;;;2.35;1.05;;;4.90;99.90;;;;;;5065696;28;20249;-73
2021/03/13 00:53:56;;;;;;;2.15;1.10;;;5.00;99.90;;;;;;5052207;28;20223;-73
2021/03/13 00:56:22;;;;;;;1.73;0.90;;;5.00;99.90;;;;;;5062580;28;20205;-72
2021/03/13 00:58:48;;;;;;;1.00;0.90;;;4.90;99.90;;;;;;5065067;28;20205;-73
2021/03/13 01:01:15;;;;;;;1.20;0.88;;;4.90;99.90;;;;;;5065104;28;20228;-73
2021/03/13 01:03:41;;;;;;;1.92;1.10;;;4.80;99.90;;;;;;5059955;28;20675;-73
2021/03/13 01:06:08;;;;;;;2.35;0.80;;;4.90;99.90;;;;;;5064069;28;20219;-72
2021/03/13 01:08:34;;;;;;;1.30;1.08;;;4.80;99.90;;;;;;5064903;28;20259;-72
2021/03/13 01:11:01;;;;;;;2.78;0.90;;;4.90;99.90;;;;;;5065731;28;20224;-72
2021/03/13 01:13:27;;;;;;;1.48;1.00;;;4.90;99.90;;;;;;5065112;28;20619;-73
2021/03/13 01:15:54;;;;;;;1.35;1.08;;;4.80;99.90;;;;;;5065690;28;20557;-72
2021/03/13 01:18:21;;;;;;;2.42;0.90;;;4.70;99.90;;;;;;5066334;28;20200;-73
2021/03/13 01:20:48;;;;;;;2.45;0.90;;;4.60;99.90;;;;;;5067417;28;20216;-73
2021/03/13 01:23:14;;;;;;;1.23;0.77;;;4.50;99.90;;;;;;5067942;28;20266;-72
2021/03/13 01:25:41;;;;;;;0.90;0.80;;;4.50;99.90;;;;;;5067848;28;20188;-73
2021/03/13 01:28:07;;;;;;;0.90;0.80;;;4.40;99.90;;;;;;5067910;28;20196;-73
2021/03/13 01:30:33;;;;;;;1.30;0.95;;;4.40;99.90;;;;;;5066544;28;20297;-73
2021/03/13 01:32:59;;;;;;;0.80;0.70;;;4.30;99.90;;;;;;5067802;28;20220;-73
2021/03/13 01:35:27;;;;;;;1.35;0.82;;;4.30;99.90;;;;;;5067302;28;20196;-72
2021/03/13 01:37:53;;;;;;;2.20;1.00;;;4.20;99.90;;;;;;5067265;28;20193;-72
2021/03/13 01:40:20;;;;;;;1.02;0.90;;;4.10;99.90;;;;;;5066950;28;20208;-72
2021/03/13 01:42:47;;;;;;;1.63;0.90;;;4.00;99.90;;;;;;5067525;28;20558;-73
2021/03/13 01:45:15;;;;;;;0.90;0.80;;;4.00;99.90;;;;;;5067074;28;20212;-74
2021/03/13 01:47:43;;;;;;;1.30;1.20;;;4.00;99.90;;;;;;5107252;22;20227;-91
2021/03/13 01:50:11;;;;;;;1.05;0.80;;;4.00;99.90;;;;;;5116701;28;20206;-91
2021/03/13 01:52:39;;;;;;;1.73;0.82;;;3.90;99.90;;;;;;5116602;28;20223;-91
2021/03/13 01:55:07;;;;;;;1.10;0.80;;;4.00;99.90;;;;;;5118446;28;20205;-91
2021/03/13 01:57:35;;;;;;;1.10;0.82;;;4.00;99.90;;;;;;5107504;28;20234;-92
2021/03/13 02:00:01;;;;;;;2.65;1.20;;;3.90;99.90;;;;;;5102430;28;20225;-94
2021/03/13 02:02:27;;;;;;;1.10;0.90;;;3.90;99.90;;;;;;5106396;28;20199;-92
2021/03/13 02:04:54;;;;;;;1.60;0.88;;;3.90;99.90;;;;;;5103782;28;20198;-93
2021/03/13 02:07:24;;;;;;;2.28;1.10;;;3.80;99.90;;;;;;5104122;28;20225;-92
2021/03/13 02:10:02;;;;;;;1.10;1.00;;;3.80;99.90;;;;;;5105486;28;20651;-91
2021/03/13 02:12:40;;;;;;;4.75;1.17;;;3.70;99.90;;;;;;5103240;28;20676;-91
2021/03/13 02:15:15;;;;;;;1.08;0.98;;;3.70;99.90;;;;;;5104022;28;20198;-91
2021/03/13 02:17:52;;;;;;;1.85;1.10;;;3.70;99.90;;;;;;5095156;28;20223;-91
2021/03/13 02:20:53;;;;;;;1.48;1.20;;;3.60;99.90;;;;;;5094574;28;20195;-91
2021/03/13 02:23:22;;;;;;;4.70;1.65;;;3.50;99.90;;;;;;5094484;28;20279;-91
2021/03/13 02:26:11;;;;;;;1.63;1.10;;;3.50;99.90;;;;;;5094724;28;20204;-90
2021/03/13 02:28:43;;;;;;;2.85;1.40;;;3.50;99.90;;;;;;5094392;28;20223;-92
2021/03/13 02:31:12;;;;;;;1.85;1.60;;;3.50;99.90;;;;;;5095251;28;20204;-90
2021/03/13 02:33:40;;;;;;;1.40;1.30;;;3.50;99.90;;;;;;5094673;28;20207;-91
2021/03/13 02:36:10;;;;;;;1.70;1.60;;;3.50;99.90;;;;;;5095327;28;20249;-91
2021/03/13 02:38:42;;;;;;;1.50;1.40;;;3.50;99.90;;;;;;5094320;28;20199;-91
2021/03/13 02:41:16;;;;;;;2.75;1.38;;;3.50;99.90;;;;;;5093980;28;20294;-91
2021/03/13 02:43:47;;;;;;;1.73;1.42;;;3.60;99.90;;;;;;5094280;28;20245;-91
2021/03/13 02:46:17;;;;;;;1.30;1.10;;;3.60;99.90;;;;;;5092797;28;20206;-90
2021/03/13 02:48:47;;;;;;;3.20;1.20;;;3.60;99.90;;;;;;5093666;28;20222;-91
2021/03/13 02:51:16;;;;;;;1.90;1.30;;;3.60;99.90;;;;;;5094280;28;20653;-91
2021/03/13 02:53:44;;;;;;;2.95;1.42;;;3.70;99.90;;;;;;5093827;28;20210;-90
2021/03/13 02:56:11;;;;;;;2.38;1.35;;;3.80;99.90;;;;;;5094920;28;20252;-90
2021/03/13 02:58:39;;;;;;;2.42;1.50;;;3.80;99.90;;;;;;5093845;28;20221;-90
2021/03/13 03:01:06;;;;;;;2.55;1.35;;;3.80;99.90;;;;;;5094609;28;20200;-90
2021/03/13 03:03:36;;;;;;;3.70;1.65;;;3.90;99.90;;;;;;5093883;28;20253;-91
2021/03/13 03:06:03;;;;;;;6.38;1.90;;;4.00;99.90;;;;;;5102687;28;20204;-91
2021/03/13 03:08:30;;;;;;;4.00;1.60;;;4.10;99.90;;;;;;5105666;28;20210;-91
2021/03/13 03:10:57;;;;;;;3.05;1.40;;;4.20;99.90;;;;;;5093798;28;20200;-91
2021/03/13 03:13:24;;;;;;;3.65;1.67;;;4.20;99.90;;;;;;5093698;28;20228;-91
2021/03/13 03:15:52;;;;;;;1.38;1.17;;;4.20;99.90;;;;;;5093710;28;20241;-91
2021/03/13 03:18:24;;;;;;;2.97;1.48;;;4.20;99.90;;;;;;5093774;28;20223;-91
2021/03/13 03:20:53;;;;;;;3.95;1.48;;;4.20;99.90;;;;;;5093527;28;20207;-91
2021/03/13 03:23:19;;;;;;;6.63;1.70;;;4.20;99.90;;;;;;5092934;28;20196;-92
2021/03/13 03:25:46;;;;;;;3.15;1.45;;;4.20;99.90;;;;;;5093014;28;20661;-90
2021/03/13 03:28:13;;;;;;;2.75;1.30;;;4.30;99.90;;;;;;5095500;28;20220;-92
2021/03/13 03:30:40;;;;;;;4.25;1.55;;;4.30;99.90;;;;;;5096959;28;20196;-91
2021/03/13 03:33:06;;;;;;;2.05;1.55;;;4.30;99.90;;;;;;5093803;28;20223;-91
2021/03/13 03:35:33;;;;;;;3.45;1.30;;;4.40;99.90;;;;;;5093800;28;20204;-91
2021/03/13 03:38:02;;;;;;;2.67;1.40;;;4.40;99.90;;;;;;5093821;28;20590;-91
2021/03/13 03:40:30;;;;;;;1.83;1.35;;;4.60;99.90;;;;;;5099957;28;20199;-92
2021/03/13 03:43:02;;;;;;;3.60;1.50;;;4.60;99.90;;;;;;5100831;28;20210;-91
2021/03/13 03:45:32;;;;;;;2.25;1.63;;;4.60;99.90;;;;;;5093516;28;20188;-90
2021/03/13 03:48:02;;;;;;;2.92;1.30;;;4.70;99.90;;;;;;5094287;28;20231;-90
2021/03/13 03:50:31;;;;;;;4.95;1.35;;;4.70;99.90;;;;;;5095783;28;20195;-92
2021/03/13 03:53:00;;;;;;;2.20;1.15;;;4.80;99.90;;;;;;5101922;28;20216;-91
2021/03/13 03:55:27;;;;;;;3.05;1.30;;;4.80;99.90;;;;;;5109608;28;20192;-91
2021/03/13 03:57:56;;;;;;;3.58;1.35;;;4.90;99.90;;;;;;5092846;28;20234;-92
2021/03/13 04:00:24;;;;;;;5.82;1.70;;;4.90;99.90;;;;;;5092685;28;20665;-91
2021/03/13 04:02:52;;;;;;;2.33;1.10;;;5.00;99.90;;;;;;5093415;28;20202;-90
2021/03/13 04:05:20;;;;;;;1.42;1.33;;;5.10;99.90;;;;;;5094484;28;20234;-91
2021/03/13 04:07:46;;;;;;;3.85;1.20;;;5.10;99.90;;;;;;5094904;28;20589;-90
2021/03/13 04:10:15;;;;;;;1.50;1.25;;;5.20;99.90;;;;;;5093686;28;20200;-91
2021/03/13 04:12:43;;;;;;;2.38;1.02;;;5.30;99.90;;;;;;5093285;28;20628;-91
2021/03/13 04:15:11;;;;;;;2.75;1.05;;;5.20;99.90;;;;;;5092947;28;20244;-91
2021/03/13 04:17:38;;;;;;;2.78;1.13;;;5.20;99.90;;;;;;5092962;28;20234;-91
2021/03/13 04:20:06;;;;;;;2.13;1.20;;;5.20;99.90;;;;;;5093030;28;20675;-91
2021/03/13 04:22:35;;;;;;;2.25;1.13;;;5.30;99.90;;;;;;5092598;28;20200;-91
2021/03/13 04:25:03;;;;;;;2.30;1.20;;;5.30;99.90;;;;;;5092869;28;20474;-92
2021/03/13 04:27:31;;;;;;;2.67;1.40;;;5.30;99.90;;;;;;5092339;28;20234;-91
2021/03/13 04:29:57;;;;;;;2.95;1.50;;;5.30;99.90;;;;;;5092578;28;20198;-92
2021/03/13 04:32:24;;;;;;;2.00;1.25;;;5.40;99.90;;;;;;5092734;28;20220;-91
2021/03/13 04:34:52;;;;;;;2.60;1.35;;;5.40;99.90;;;;;;5092996;28;20573;-92
2021/03/13 04:37:22;;;;;;;2.65;1.30;;;5.50;99.90;;;;;;5092891;28;20269;-92
2021/03/13 04:39:49;;;;;;;1.73;1.45;;;5.50;99.90;;;;;;5094064;28;20568;-93
2021/03/13 04:42:16;;;;;;;1.80;1.38;;;5.50;99.90;;;;;;5092999;28;20264;-93
2021/03/13 04:44:44;;;;;;;3.15;1.40;;;5.50;99.90;;;;;;5092670;28;20203;-92
2021/03/13 04:47:10;;;;;;;3.42;1.83;;;5.60;99.90;;;;;;5092291;28;20238;-92
2021/03/13 04:49:37;;;;;;;1.80;1.00;;;5.60;99.90;;;;;;5093657;28;20200;-92
2021/03/13 04:52:04;;;;;;;2.28;1.45;;;5.60;99.90;;;;;;5093265;28;20227;-92
2021/03/13 04:54:32;;;;;;;3.03;1.02;;;5.60;99.90;;;;;;5093829;28;20208;-93
2021/03/13 04:56:59;;;;;;;3.45;1.20;;;5.60;99.90;;;;;;5095004;28;20235;-93
2021/03/13 04:59:25;;;;;;;1.77;1.10;;;5.60;99.90;;;;;;5093072;28;20200;-92
2021/03/13 05:01:53;;;;;;;2.78;1.42;;;5.60;99.90;;;;;;5092380;28;20589;-93
2021/03/13 05:04:19;;;;;;;1.92;0.95;;;5.60;99.90;;;;;;5094127;28;20211;-92
2021/03/13 05:06:45;;;;;;;2.78;1.10;;;5.60;99.90;;;;;;5097512;28;20276;-92
2021/03/13 05:09:11;;;;;;;1.92;1.10;;;5.70;99.90;;;;;;5097595;28;20192;-91
2021/03/13 05:11:38;;;;;;;1.65;1.20;;;5.70;99.90;;;;;;5096963;28;20199;-91
2021/03/13 05:14:05;;;;;;;2.60;1.20;;;5.70;99.90;;;;;;5097057;28;20214;-92
2021/03/13 05:16:32;;;;;;;1.33;1.10;;;5.70;99.90;;;;;;5095798;28;20231;-91
2021/03/13 05:18:59;;;;;;;2.75;1.30;;;5.70;99.90;;;;;;5095631;28;20235;-91
2021/03/13 05:21:25;;;;;;;2.45;1.05;;;5.80;99.90;;;;;;5095656;28;20474;-91
2021/03/13 05:23:51;;;;;;;2.15;1.10;;;5.80;99.90;;;;;;5095652;28;20200;-91
2021/03/13 05:26:18;;;;;;;2.25;1.27;;;5.90;99.90;;;;;;5095518;28;20231;-91
2021/03/13 05:28:44;;;;;;;2.95;1.40;;;5.90;99.90;;;;;;5095672;28;20207;-90
2021/03/13 05:31:10;;;;;;;5.30;1.20;;;5.90;99.90;;;;;;5095947;28;20225;-92
2021/03/13 05:33:37;;;;;;;0.90;0.80;;;5.90;99.90;;;;;;5108299;28;20218;-91
2021/03/13 05:36:05;;;;;;;2.03;1.10;;;5.90;99.90;;;;;;5117900;28;20199;-91
2021/03/13 05:38:31;;;;;;;4.25;1.40;;;6.00;99.90;;;;;;5097925;28;20200;-91
2021/03/13 05:40:58;;;;;;;1.10;0.90;;;6.00;99.90;;;;;;5097535;28;20208;-91
2021/03/13 05:43:25;;;;;;;1.20;1.00;;;6.00;99.90;;;;;;5096929;28;20208;-91
2021/03/13 05:45:51;;;;;;;2.42;0.90;;;6.00;99.90;;;;;;5098642;28;20268;-92
2021/03/13 05:48:20;;;;;;;2.65;1.23;;;6.10;99.90;;;;;;5097089;28;20253;-91
2021/03/13 05:50:47;;;;;;;5.47;2.95;;;6.10;99.90;;;;;;5096703;28;20294;-92
2021/03/13 05:53:15;;;;;;;1.77;1.08;;;6.10;99.90;;;;;;5096853;28;20277;-91
2021/03/13 05:55:43;;;;;;;2.38;1.10;;;6.20;99.90;;;;;;5095029;28;20290;-91
2021/03/13 05:58:48;;;;;;;1.38;1.05;;;6.20;99.90;;;;;;5094140;28;20778;-90
2021/03/13 06:07:49;;;;;;;2.28;1.20;;;6.30;99.90;;;;;;5040491;22;20231;-74
2021/03/13 06:10:16;;;;;;;1.67;1.05;;;6.30;99.90;;;;;;5089649;28;20196;-74
2021/03/13 06:12:42;;;;;;;2.42;1.20;;;6.30;99.90;;;;;;5090686;28;20235;-75
2021/03/13 06:15:10;;;;;;;1.35;1.10;;;6.30;99.90;;;;;;5090303;28;20212;-74
2021/03/13 06:17:53;;;;;;;5.45;1.48;;;6.40;99.90;;;;;;5089576;28;20204;-75
2021/03/13 06:20:29;;;;;;;5.03;1.45;;;6.40;99.90;;;;;;5090065;28;20629;-74
2021/03/13 06:22:56;;;;;;;1.30;1.10;;;6.40;99.90;;;;;;5090760;28;20196;-75
2021/03/13 06:25:26;;;;;;;2.47;1.27;;;6.50;99.90;;;;;;5090725;28;20200;-74
2021/03/13 06:28:11;;;;;;;2.50;1.30;;;6.50;99.90;;;;;;5090607;28;20231;-75
2021/03/13 06:30:40;;;;;;;1.80;1.20;;;6.50;99.90;;;;;;5089901;28;20254;-75
2021/03/13 06:33:24;;;;;;;4.35;1.40;;;6.60;99.90;;;;;;5089979;28;20444;-77
2021/03/13 06:35:51;;;;;;;3.10;1.85;;;6.60;99.90;;;;;;5090978;28;20235;-77
2021/03/13 06:38:20;;;;;;;4.25;1.70;;;6.70;99.90;;;;;;5090764;28;20298;-77
2021/03/13 06:40:49;;;;;;;2.85;1.20;;;6.80;99.90;;;;;;5089806;28;20224;-77
2021/03/13 06:43:23;;;;;;;5.43;1.63;;;6.90;99.90;;;;;;5090266;28;20202;-77
2021/03/13 06:45:58;;;;;;;2.53;1.20;;;6.90;99.90;;;;;;5090938;28;20199;-76
2021/03/13 06:48:32;;;;;;;2.40;1.55;;;6.90;99.90;;;;;;5079288;28;20572;-76
2021/03/13 06:51:24;;;;;;;3.47;1.63;;;7.10;99.90;;;;;;5080065;28;20219;-77
2021/03/13 06:54:10;;;;;;;3.53;1.08;;;7.20;99.90;;;;;;5080870;28;20220;-77
2021/03/13 06:56:40;;;;;;;3.15;1.40;;;7.20;99.90;;;;;;5079428;28;20195;-76
2021/03/13 06:59:20;;;;;;;4.68;1.10;;;7.20;99.90;;;;;;5078124;28;20201;-77
2021/03/13 07:01:47;;;;;;;1.42;0.90;;;7.20;99.90;;;;;;5078879;28;20216;-77
2021/03/13 07:04:28;;;;;;;2.15;1.02;;;7.30;99.90;;;;;;5081902;28;20226;-76
2021/03/13 07:06:55;;;;;;;2.08;1.20;;;7.30;99.90;;;;;;5071094;28;20204;-77
2021/03/13 07:09:42;;;;;;;4.00;1.20;;;7.30;99.90;;;;;;5069807;28;20208;-73
2021/03/13 07:12:21;;;;;;;2.53;1.27;;;7.30;99.90;;;;;;5068559;28;20280;-72
2021/03/13 07:14:47;;;;;;;1.85;1.20;;;7.40;99.90;;;;;;5069177;28;20196;-73
2021/03/13 07:17:15;;;;;;;1.20;0.90;;;7.50;99.90;;;;;;5067359;28;20719;-72
2021/03/13 07:19:42;;;;;;;2.08;1.02;;;7.50;99.90;;;;;;5067834;28;20589;-73
2021/03/13 07:22:08;;;;;;;6.15;1.20;;;7.70;99.90;;;;;;5069296;28;20643;-72
2021/03/13 07:24:36;;;;;;;1.63;1.17;;;7.80;99.90;;;;;;5069048;28;20204;-72
2021/03/13 07:27:04;;;;;;;1.27;1.17;;;7.90;99.90;;;;;;5068397;28;20207;-73
2021/03/13 07:29:32;;;;;;;1.55;1.10;;;7.90;99.90;;;;;;5068135;28;20205;-72
2021/03/13 07:32:02;;;;;;;6.18;1.85;;;8.00;99.90;;;;;;5068999;28;20228;-73
2021/03/13 07:34:31;;;;;;;1.90;1.00;;;8.10;99.90;;;;;;5069004;28;20678;-73
2021/03/13 07:36:59;;;;;;;3.80;1.23;;;8.50;99.90;;;;;;5069504;28;20207;-73
2021/03/13 07:39:29;;;;;;;1.63;1.10;;;8.70;99.90;;;;;;5068629;28;20204;-73
2021/03/13 07:41:58;;;;;;;2.63;1.02;;;8.70;99.90;;;;;;5069500;28;20653;-72
2021/03/13 07:44:25;;;;;;;2.88;1.20;;;8.40;99.90;;;;;;5069328;28;20205;-73
2021/03/13 07:46:53;;;;;;;2.33;1.20;;;8.20;99.90;;;;;;5139404;22;20767;-71
2021/03/13 07:49:21;;;;;;;1.70;1.00;;;8.20;99.90;;;;;;5087404;28;20723;-70
2021/03/13 07:51:48;;;;;;;1.45;1.08;;;8.20;99.90;;;;;;5075879;28;20216;-73
2021/03/13 07:54:15;;;;;;;1.45;1.10;;;8.20;99.90;;;;;;5069421;28;20216;-72
2021/03/13 07:56:42;;;;;;;2.85;1.15;;;8.30;99.90;;;;;;5069239;28;20590;-72
2021/03/13 07:59:10;;;;;;;3.05;1.35;;;8.30;99.90;;;;;;5068947;28;20211;-71
2021/03/13 08:01:52;;;;;;;4.32;1.20;;;8.30;99.90;;;;;;5069053;28;20615;-72
2021/03/13 08:04:57;;;;;;;2.40;1.00;;;8.40;99.90;;;;;;5069273;28;20683;-73
2021/03/13 08:07:24;;;;;;;1.60;1.00;;;8.40;99.90;;;;;;5069105;28;20203;-73
2021/03/13 08:09:50;;;;;;;1.55;0.95;;;8.60;99.90;;;;;;5068009;28;20414;-73
2021/03/13 08:12:38;;;;;;;3.05;1.20;;;8.90;99.90;;;;;;5068674;28;20228;-71
2021/03/13 08:15:10;;;;;;;1.30;1.02;;;9.20;99.90;;;;;;5069088;28;20211;-71
2021/03/13 08:17:40;;;;;;;2.35;1.00;;;9.20;99.90;;;;;;5069249;28;20208;-71
2021/03/13 08:20:07;;;;;;;3.28;1.02;;;9.20;99.90;;;;;;5069244;28;20248;-71
2021/03/13 08:22:33;;;;;;;3.05;1.00;;;9.30;99.90;;;;;;5065009;28;20266;-71
2021/03/13 08:25:00;;;;;;;2.30;1.30;;;9.30;99.20;;;;;;5072996;28;20199;-71
2021/03/13 08:27:41;;;;;;;2.00;1.15;;;9.30;99.10;;;;;;5086082;28;20302;-70
2021/03/13 08:30:18;;;;;;;1.70;0.82;;;9.20;99.10;;;;;;5085745;28;20227;-70
2021/03/13 08:33:07;;;;;;;2.95;1.02;;;9.50;98.20;;;;;;5086573;28;20620;-72
2021/03/13 08:35:50;;;;;;;1.40;0.85;;;9.90;97.70;;;;;;5086544;28;20204;-71
2021/03/13 08:38:41;;;;;;;2.10;1.00;;;10.00;96.80;;;;;;5086640;28;20246;-70
2021/03/13 08:41:08;;;;;;;2.88;1.25;;;10.10;96.40;;;;;;5090844;28;20219;-69
2021/03/13 08:43:37;;;;;;;1.80;1.08;;;10.80;95.20;;;;;;5090014;28;20203;-69
2021/03/13 08:46:06;;;;;;;2.72;1.20;;;11.10;94.60;;;;;;5090562;28;20573;-69
2021/03/13 08:48:57;;;;;;;3.33;1.10;;;11.30;93.20;;;;;;5089928;28;20215;-68
2021/03/13 08:51:23;;;;;;;1.25;1.00;;;11.10;93.10;;;;;;5089889;28;20224;-68
2021/03/13 08:53:50;;;;;;;2.47;1.20;;;10.90;94.10;;;;;;5089779;28;20944;-70
2021/03/13 08:56:36;;;;;;;3.65;0.98;;;10.50;94.10;;;;;;5080623;28;20295;-69
2021/03/13 08:59:18;;;;;;;4.20;1.50;;;10.20;94.10;;;;;;5069149;28;20208;-69
2021/03/13 09:02:00;;;;;;;2.45;1.08;;;10.10;94.50;;;;;;5069864;28;20227;-68
2021/03/13 09:04:28;;;;;;;3.40;1.00;;;10.00;94.40;;;;;;5069843;28;20227;-69
2021/03/13 09:06:55;;;;;;;2.85;1.75;;;9.90;95.20;;;;;;5069660;28;20224;-68
2021/03/13 09:09:22;;;;;;;3.42;1.40;;;10.20;94.20;;;;;;5068965;28;20315;-69
2021/03/13 09:11:56;;;;;;;5.55;1.35;;;10.50;94.00;;;;;;5069769;28;20299;-69
2021/03/13 09:14:22;;;;;;;1.13;1.02;;;10.70;93.70;;;;;;5068839;28;20239;-69
2021/03/13 09:16:48;;;;;;;1.98;0.90;;;10.80;93.30;;;;;;5068558;28;20583;-70
2021/03/13 09:19:15;;;;;;;1.13;0.90;;;11.00;93.20;;;;;;5068945;28;20203;-70
2021/03/13 09:21:47;;;;;;;1.67;0.98;;;11.30;92.20;;;;;;5068530;28;20416;-68
2021/03/13 09:24:17;;;;;;;1.38;1.10;;;11.30;92.40;;;;;;5069112;28;20215;-68
2021/03/13 09:26:48;;;;;;;1.42;1.13;;;11.00;92.80;;;;;;5068620;28;21050;-68
2021/03/13 09:29:15;;;;;;;3.40;1.20;;;10.70;92.50;;;;;;5066685;28;20230;-69
2021/03/13 09:31:41;;;;;;;1.75;1.20;;;10.40;92.40;;;;;;5069455;28;20329;-68
2021/03/13 09:34:18;;;;;;;1.70;0.85;;;10.30;93.00;;;;;;5069545;28;20220;-69
2021/03/13 09:36:47;;;;;;;1.65;1.40;;;10.40;93.00;;;;;;5068978;28;20219;-69
2021/03/13 09:39:21;;;;;;;1.60;0.82;;;10.60;92.50;;;;;;5068339;28;20208;-71
2021/03/13 09:42:19;;;;;;;2.83;1.30;;;10.80;92.40;;;;;;5068595;28;20219;-70
2021/03/13 09:44:47;;;;;;;3.47;1.10;;;10.90;91.90;;;;;;5067773;28;20967;-68
2021/03/13 09:47:22;;;;;;;1.10;0.90;;;10.90;92.10;;;;;;5067543;28;20801;-68
2021/03/13 09:49:52;;;;;;;0.90;0.70;;;11.50;91.80;;;;;;5067329;28;20208;-69
2021/03/13 09:52:25;;;;;;;2.10;1.30;;;11.80;91.00;;;;;;5068403;28;20687;-69
2021/03/13 09:55:00;;;;;;;1.50;1.00;;;11.70;91.10;;;;;;5068294;28;20267;-68
2021/03/13 09:57:27;;;;;;;1.58;1.00;;;11.50;91.50;;;;;;5068287;28;20257;-70
2021/03/13 09:59:54;;;;;;;3.28;1.20;;;11.20;92.20;;;;;;5068386;28;20208;-70
2021/03/13 10:02:21;;;;;;;2.47;1.10;;;10.80;92.10;;;;;;5069353;28;20248;-72
2021/03/13 10:04:49;;;;;;;0.90;0.80;;;10.70;92.70;;;;;;5068469;28;20643;-70
2021/03/13 10:07:16;;;;;;;1.10;0.90;;;10.50;93.10;;;;;;5068719;28;20253;-69
2021/03/13 10:09:55;;;;;;;1.10;0.90;;;10.40;93.40;;;;;;5067787;28;20300;-69
2021/03/13 10:12:29;;;;;;;1.38;1.00;;;10.30;93.20;;;;;;5068971;28;20596;-69
2021/03/13 10:14:57;;;;;;;1.33;0.85;;;10.10;93.30;;;;;;5069045;28;20580;-69
2021/03/13 10:17:24;;;;;;;5.03;1.00;;;10.10;93.50;;;;;;5068302;28;20212;-69
2021/03/13 10:19:51;;;;;;;2.50;0.90;;;10.00;93.70;;;;;;5066922;28;20620;-69
2021/03/13 10:22:24;;;;;;;2.45;1.23;;;10.00;93.50;;;;;;5067278;28;20323;-71
2021/03/13 10:24:53;;;;;;;4.28;1.08;;;9.90;94.20;;;;;;5066904;28;20885;-72
2021/03/13 10:27:25;;;;;;;2.72;1.20;;;9.80;94.40;;;;;;5067684;28;20207;-72
2021/03/13 10:29:53;;;;;;;1.10;1.00;;;9.70;94.40;;;;;;5065862;28;20205;-72
2021/03/13 10:32:25;;;;;;;1.27;0.90;;;9.80;94.60;;;;;;5067673;28;20220;-70
2021/03/13 10:35:13;;;;;;;1.95;1.13;;;9.80;94.20;;;;;;5066989;28;20208;-68
2021/03/13 10:37:41;;;;;;;2.22;1.08;;;9.80;94.90;;;;;;5067309;28;20205;-71
2021/03/13 10:40:10;;;;;;;4.30;0.90;;;9.80;94.20;;;;;;5066314;28;20204;-71
2021/03/13 10:42:36;;;;;;;2.85;1.00;;;9.90;94.50;;;;;;5069616;28;20200;-68
2021/03/13 10:45:17;;;;;;;1.35;0.85;;;9.90;94.60;;;;;;5076603;28;20774;-68
2021/03/13 10:47:45;;;;;;;1.33;0.95;;;10.00;93.90;;;;;;5067152;28;20204;-68
2021/03/13 10:50:12;;;;;;;1.48;0.90;;;10.00;93.80;;;;;;5066211;28;20571;-69
2021/03/13 10:52:40;;;;;;;2.08;0.90;;;10.00;94.10;;;;;;5066194;28;20224;-68
2021/03/13 10:55:08;;;;;;;2.00;1.23;;;10.00;93.50;;;;;;5067506;28;21004;-71
2021/03/13 10:57:35;;;;;;;1.33;1.00;;;10.00;93.70;;;;;;5065982;28;20204;-70
2021/03/13 11:00:05;;;;;;;1.00;0.75;;;10.00;93.80;;;;;;5064795;28;20196;-71
2021/03/13 11:02:31;;;;;;;1.70;1.45;;;10.10;93.40;;;;;;5066006;28;20203;-72
2021/03/13 11:04:57;;;;;;;0.95;0.85;;;10.10;93.40;;;;;;5065721;28;20203;-69
2021/03/13 11:07:24;;;;;;;1.17;0.85;;;10.10;93.20;;;;;;5066257;28;20231;-71
2021/03/13 11:09:50;;;;;;;0.90;0.70;;;10.00;93.30;;;;;;5065728;28;20304;-68
2021/03/13 11:12:17;;;;;;;1.58;0.80;;;10.10;93.30;;;;;;5066118;28;20221;-69
2021/03/13 11:14:43;;;;;;;0.95;0.85;;;10.00;93.20;;;;;;5066095;28;20211;-69
2021/03/13 11:17:10;;;;;;;1.10;1.00;;;10.10;93.10;;;;;;5066517;28;20205;-69
2021/03/13 11:19:36;;;;;;;2.28;0.90;;;10.00;92.80;;;;;;5065082;28;20208;-69
2021/03/13 11:22:10;;;;;;;0.98;0.85;;;10.10;93.00;;;;;;5066342;28;20235;-70
2021/03/13 11:24:37;;;;;;;2.38;0.90;;;10.00;93.10;;;;;;5065772;28;20228;-69
2021/03/13 11:27:03;;;;;;;0.90;0.70;;;10.10;92.70;;;;;;5065780;28;20208;-69
2021/03/13 11:29:31;;;;;;;1.63;1.35;;;10.10;92.70;;;;;;5066514;28;20200;-69
2021/03/13 11:31:58;;;;;;;0.85;0.75;;;10.20;92.80;;;;;;5066105;28;20228;-69
2021/03/13 11:34:24;;;;;;;1.30;1.00;;;10.20;92.80;;;;;;5065306;28;20227;-69
2021/03/13 11:36:52;;;;;;;1.08;0.90;;;10.30;92.80;;;;;;5066000;28;20291;-69
2021/03/13 11:39:19;;;;;;;0.90;0.77;;;10.40;92.90;;;;;;5066178;28;20290;-69
2021/03/13 11:41:45;;;;;;;0.90;0.73;;;10.40;92.60;;;;;;5065284;28;20228;-68
2021/03/13 11:44:12;;;;;;;1.30;1.08;;;10.20;92.50;;;;;;5066064;28;20193;-69
2021/03/13 11:46:39;;;;;;;1.20;0.80;;;10.20;92.70;;;;;;5065650;28;20240;-68
2021/03/13 11:49:06;;;;;;;1.00;0.82;;;10.40;92.90;;;;;;5065361;28;20231;-69
2021/03/13 11:51:33;;;;;;;1.90;0.90;;;10.50;92.80;;;;;;5065336;28;20634;-69
2021/03/13 11:53:59;;;;;;;2.28;0.98;;;10.50;92.60;;;;;;5065208;28;20255;-70
2021/03/13 11:56:25;;;;;;;0.90;0.80;;;10.50;92.60;;;;;;5065084;28;20586;-68
2021/03/13 11:58:51;;;;;;;4.53;1.40;;;10.50;92.60;;;;;;5064418;28;20204;-69
2021/03/13 12:01:19;;;;;;;1.77;1.05;;;10.50;92.60;;;;;;5065446;28;20217;-69
2021/03/13 12:03:46;;;;;;;1.00;0.90;;;10.40;92.20;;;;;;5066029;28;21169;-70
2021/03/13 12:06:12;;;;;;;2.22;1.00;;;10.40;92.50;;;;;;5065500;28;20207;-69
2021/03/13 12:08:39;;;;;;;1.25;1.00;;;10.50;92.50;;;;;;5065071;28;20257;-70
2021/03/13 12:11:05;;;;;;;1.30;0.90;;;10.50;92.60;;;;;;5064914;28;20224;-70
2021/03/13 12:13:31;;;;;;;1.98;1.40;;;10.50;92.70;;;;;;5064784;28;20224;-68
2021/03/13 12:15:57;;;;;;;1.55;1.00;;;10.40;93.10;;;;;;5065390;28;20196;-70
2021/03/13 12:18:23;;;;;;;1.25;1.08;;;10.40;93.60;;;;;;5065436;28;20665;-70
2021/03/13 12:20:50;;;;;;;1.10;0.80;;;10.50;93.80;;;;;;5064700;28;20254;-70
2021/03/13 12:23:17;;;;;;;3.13;1.00;;;10.40;94.30;;;;;;5065139;28;20750;-69
2021/03/13 12:25:43;;;;;;;1.40;1.00;;;10.30;94.40;;;;;;5065591;28;20596;-69
2021/03/13 12:28:09;;;;;;;1.10;0.80;;;10.20;94.90;;;;;;5071395;28;20201;-69
2021/03/13 12:30:35;;;;;;;1.90;1.10;;;10.00;95.50;;;;;;5069477;28;21035;-69
2021/03/13 12:33:02;;;;;;;4.05;2.08;;;10.00;96.10;;;;;;5066042;28;20252;-69
2021/03/13 12:35:28;;;;;;;1.45;0.90;;;9.90;96.70;;;;;;5066749;28;20671;-70
2021/03/13 12:37:55;;;;;;;1.88;0.80;;;9.90;96.90;;;;;;5066470;28;20200;-70
2021/03/13 12:40:21;;;;;;;0.85;0.70;;;9.90;97.30;;;;;;5066089;28;20211;-69
2021/03/13 12:42:47;;;;;;;0.95;0.70;;;10.00;96.60;;;;;;5065962;28;20303;-69
2021/03/13 12:45:14;;;;;;;1.10;0.95;;;10.10;96.50;;;;;;5066402;28;20204;-69
2021/03/13 12:47:40;;;;;;;1.40;1.00;;;10.10;96.60;;;;;;5065520;28;20635;-68
2021/03/13 12:50:08;;;;;;;2.40;0.90;;;10.10;96.60;;;;;;5065707;28;20212;-69
2021/03/13 12:52:34;;;;;;;1.70;0.90;;;10.10;96.70;;;;;;5065684;28;20709;-70
2021/03/13 12:55:02;;;;;;;1.23;0.90;;;10.00;96.90;;;;;;5065450;28;20201;-68
2021/03/13 12:57:28;;;;;;;1.85;0.95;;;9.80;97.90;;;;;;5065454;28;20209;-69
2021/03/13 12:59:54;;;;;;;1.27;1.10;;;9.70;98.10;;;;;;5064950;28;20249;-72
2021/03/13 13:02:20;;;;;;;1.55;1.10;;;9.60;98.50;;;;;;5065312;28;20228;-69
2021/03/13 13:04:47;;;;;;;1.10;1.00;;;9.50;98.90;;;;;;5064990;28;20216;-68
2021/03/13 13:07:13;;;;;;;1.88;1.05;;;9.40;99.20;;;;;;5065433;28;20201;-72
2021/03/13 13:09:41;;;;;;;2.35;1.08;;;9.40;99.70;;;;;;5064422;28;20208;-71